Midpines, California
Current Conditions -  °F | °C
As of 4:45 PM on Sunday 21 Dec 2014 (Local Time) from KMER Reporting Station
Few Clouds Few Clouds  
Wind Chill: 61°   Ceiling: Unl
Heat Index: 61°   Visibility: 10mi
Dew Point: 61°   Wind: 9mph
Humidity: 100%   Direction: 330°NNW
Pressure: 30.22"   Gusts: NA
Location:  37.54°N, 119.92°W
Report Text: KMER 220045Z 33008KT 10SM FEW021 16/16 A3022
Loading
Personal Weather Stations






























Interactive Weather Map New forecast layout! Learn more

10-Day Weather Forecast

Advertisements
Track Severe Weather on mobile